8D3

Sisseton Municipal Airport

Sisseton, South Dakota, USA
METAR K8D3 130556Z AUTO 15005KT M12/M14 A3048 RMK AO1 SLP360 T11171144 11117 21167 410721167 56007
Observed Flight Rules
Nov-13 @ 05:56 UTC (60 minutes ago)
Wind
150° at 5 knots
Temperatures Readings
Current -12°C / 10°F
Dewpoint -14°C / 7°F
Humidity 85%
Altimeter 30.48" Hg
Pressure 1036 hPa
Elevation 354
METAR K8D3 130556Z AUTO 15005KT M12/M14 A3048 RMK AO1 SLP360 T11171144 11117 21167 410721167 56007
Observed Flight Rules
Nov-13 @ 05:56 UTC
(60 minutes ago)
Wind
150° at 5 knots
Temperature Dewpoint
-12°C / 10°F -14°C / 7°F
Humidity Altimeter Pressure
85% 30.48" Hg 1036 hPa